createdAt,value
2022-12-11T00:00:10.664Z,0.85
2022-12-11T00:01:10.665Z,0.80
2022-12-11T00:02:10.692Z,0.85
2022-12-11T00:03:15.633Z,0.85
2022-12-11T00:04:10.613Z,0.83
2022-12-11T00:05:10.921Z,0.85
2022-12-11T00:06:10.592Z,0.85
2022-12-11T00:07:10.574Z,0.88
2022-12-11T00:08:10.583Z,0.86
2022-12-11T00:09:10.571Z,0.86
2022-12-11T00:10:10.569Z,0.85
2022-12-11T00:11:10.554Z,0.85
2022-12-11T00:12:10.502Z,0.86
2022-12-11T00:13:10.505Z,0.83
2022-12-11T00:14:10.485Z,0.82
2022-12-11T00:15:10.694Z,0.82
2022-12-11T00:16:10.548Z,0.79
2022-12-11T00:17:10.473Z,0.80
2022-12-11T00:18:10.427Z,0.79
2022-12-11T00:19:10.420Z,0.79
2022-12-11T00:20:10.415Z,0.80
2022-12-11T00:21:10.400Z,0.82
2022-12-11T00:22:10.370Z,0.80
2022-12-11T00:23:10.425Z,0.79
2022-12-11T00:24:10.340Z,0.78
2022-12-11T00:25:10.716Z,0.80
2022-12-11T00:26:10.339Z,0.79
2022-12-11T00:27:10.305Z,0.80
2022-12-11T00:28:10.304Z,0.76
2022-12-11T00:29:10.307Z,0.75
2022-12-11T00:30:10.268Z,0.75
2022-12-11T00:31:10.294Z,0.72
2022-12-11T00:32:10.271Z,0.71
2022-12-11T00:33:10.211Z,0.71
2022-12-11T00:34:10.227Z,0.71
2022-12-11T00:35:10.615Z,0.70
2022-12-11T00:36:10.217Z,0.70
2022-12-11T00:37:10.194Z,0.71
2022-12-11T00:38:10.168Z,0.70
2022-12-11T00:39:10.200Z,0.70
2022-12-11T00:40:10.154Z,0.71
2022-12-11T00:41:10.152Z,0.68
2022-12-11T00:42:10.166Z,0.70
2022-12-11T00:43:10.124Z,0.71
2022-12-11T00:44:10.096Z,0.68
2022-12-11T00:45:10.516Z,0.64
2022-12-11T00:46:10.131Z,0.61
2022-12-11T00:47:10.065Z,0.61
2022-12-11T00:48:10.038Z,0.57
2022-12-11T00:49:10.039Z,0.57
2022-12-11T00:50:10.027Z,0.51
2022-12-11T00:51:10.016Z,0.52
2022-12-11T00:52:09.965Z,0.52
2022-12-11T00:53:09.982Z,0.53
2022-12-11T00:54:09.968Z,0.52
2022-12-11T00:55:10.205Z,0.52
2022-12-11T00:56:09.945Z,0.52
2022-12-11T00:57:09.908Z,0.53
2022-12-11T00:58:09.903Z,0.57
2022-12-11T00:59:09.887Z,0.57
2022-12-11T01:00:09.917Z,0.57
2022-12-11T01:01:09.998Z,0.58
2022-12-11T01:02:09.836Z,0.53
2022-12-11T01:03:09.944Z,0.53
2022-12-11T01:04:09.803Z,0.51
2022-12-11T01:05:10.124Z,0.52
2022-12-11T01:06:09.775Z,0.57
2022-12-11T01:07:09.780Z,0.57
2022-12-11T01:08:09.798Z,0.57
2022-12-11T01:09:09.738Z,0.53
2022-12-11T01:10:09.771Z,0.57
2022-12-11T01:11:09.722Z,0.60
2022-12-11T01:12:09.719Z,0.58
2022-12-11T01:13:09.697Z,0.57
2022-12-11T01:14:09.674Z,0.60
2022-12-11T01:15:10.065Z,0.58
2022-12-11T01:16:09.647Z,0.53
2022-12-11T01:17:09.639Z,0.52
2022-12-11T01:18:09.623Z,0.51
2022-12-11T01:19:09.610Z,0.51
2022-12-11T01:20:09.602Z,0.46
2022-12-11T01:21:09.587Z,0.46
2022-12-11T01:22:09.564Z,0.48
2022-12-11T01:23:09.551Z,0.48
2022-12-11T01:24:09.545Z,0.51
2022-12-11T01:25:09.820Z,0.49
2022-12-11T01:26:09.560Z,0.46
2022-12-11T01:27:09.507Z,0.43
2022-12-11T01:28:09.491Z,0.49
2022-12-11T01:29:09.465Z,0.46
2022-12-11T01:30:09.502Z,0.49
2022-12-11T01:31:09.490Z,0.46
2022-12-11T01:32:09.495Z,0.48
2022-12-11T01:33:09.411Z,0.49
2022-12-11T01:34:09.401Z,0.48
2022-12-11T01:35:09.757Z,0.49
2022-12-11T01:36:09.387Z,0.48
2022-12-11T01:37:09.372Z,0.46
2022-12-11T01:38:09.366Z,0.48
2022-12-11T01:39:09.342Z,0.48
2022-12-11T01:40:09.336Z,0.52
2022-12-11T01:41:09.318Z,0.52
2022-12-11T01:42:09.317Z,0.51
2022-12-11T01:43:09.311Z,0.46
2022-12-11T01:44:09.274Z,0.45
2022-12-11T01:45:09.636Z,0.45
2022-12-11T01:46:09.275Z,0.42
2022-12-11T01:47:09.245Z,0.39
2022-12-11T01:48:09.227Z,0.34
2022-12-11T01:49:09.193Z,0.36
2022-12-11T01:50:09.197Z,0.31
2022-12-11T01:51:09.193Z,0.33
2022-12-11T01:52:09.199Z,0.34
2022-12-11T01:53:09.178Z,0.34
2022-12-11T01:54:09.147Z,0.36
2022-12-11T01:55:09.488Z,0.34
2022-12-11T01:56:09.117Z,0.33
2022-12-11T01:57:09.094Z,0.34
2022-12-11T01:58:09.109Z,0.33
2022-12-11T01:59:09.096Z,0.31
2022-12-11T02:00:09.088Z,0.30
2022-12-11T02:01:09.088Z,0.31
2022-12-11T02:02:09.095Z,0.31
2022-12-11T02:03:09.029Z,0.30
2022-12-11T02:04:09.009Z,0.31
2022-12-11T02:05:09.388Z,0.27
2022-12-11T02:06:08.988Z,0.28
2022-12-11T02:07:08.961Z,0.28
2022-12-11T02:08:09.018Z,0.27
2022-12-11T02:09:08.969Z,0.27
2022-12-11T02:10:08.963Z,0.27
2022-12-11T02:11:08.920Z,0.27
2022-12-11T02:12:08.948Z,0.30
2022-12-11T02:13:07.879Z,0.30
2022-12-11T02:14:08.890Z,0.31
2022-12-11T02:15:09.245Z,0.30
2022-12-11T02:16:08.882Z,0.34
2022-12-11T02:17:08.833Z,0.34
2022-12-11T02:18:08.869Z,0.34
2022-12-11T02:19:08.808Z,0.36
2022-12-11T02:20:08.796Z,0.31
2022-12-11T02:21:08.783Z,0.31
2022-12-11T02:22:08.770Z,0.33
2022-12-11T02:23:08.772Z,0.36
2022-12-11T02:24:08.762Z,0.36
2022-12-11T02:25:09.235Z,0.39
2022-12-11T02:26:08.729Z,0.36
2022-12-11T02:27:08.703Z,0.38
2022-12-11T02:28:08.705Z,0.39
2022-12-11T02:29:08.676Z,0.43
2022-12-11T02:30:08.677Z,0.42
2022-12-11T02:31:08.685Z,0.43
2022-12-11T02:32:08.635Z,0.42
2022-12-11T02:33:08.642Z,0.48
2022-12-11T02:34:08.622Z,0.45
2022-12-11T02:35:09.062Z,0.46
2022-12-11T02:36:08.648Z,0.45
2022-12-11T02:37:08.571Z,0.45
2022-12-11T02:38:08.572Z,0.45
2022-12-11T02:39:08.538Z,0.45
2022-12-11T02:40:08.537Z,0.42
2022-12-11T02:41:08.519Z,0.41
2022-12-11T02:42:08.497Z,0.42
2022-12-11T02:43:08.492Z,0.41
2022-12-11T02:44:08.539Z,0.38
2022-12-11T02:45:08.760Z,0.38
2022-12-11T02:46:08.498Z,0.39
2022-12-11T02:47:08.430Z,0.36
2022-12-11T02:48:08.424Z,0.38
2022-12-11T02:49:08.398Z,0.39
2022-12-11T02:50:08.427Z,0.39
2022-12-11T02:51:08.370Z,0.38
2022-12-11T02:52:08.366Z,0.39
2022-12-11T02:53:08.384Z,0.38
2022-12-11T02:54:08.336Z,0.39
2022-12-11T02:55:08.557Z,0.33
2022-12-11T02:56:08.313Z,0.34
2022-12-11T02:57:08.296Z,0.34
2022-12-11T02:58:08.310Z,0.34
2022-12-11T02:59:08.284Z,0.39
2022-12-11T03:00:08.264Z,0.34
2022-12-11T03:01:08.285Z,0.31
2022-12-11T03:02:08.265Z,0.31
2022-12-11T03:03:08.231Z,0.31
2022-12-11T03:04:08.227Z,0.30
2022-12-11T03:05:08.638Z,0.31
2022-12-11T03:06:08.175Z,0.34
2022-12-11T03:07:08.160Z,0.33
2022-12-11T03:08:08.202Z,0.33
2022-12-11T03:09:08.130Z,0.30
2022-12-11T03:10:08.163Z,0.33
2022-12-11T03:11:08.106Z,0.33
2022-12-11T03:12:08.107Z,0.34
2022-12-11T03:13:08.160Z,0.38
2022-12-11T03:14:08.057Z,0.34
2022-12-11T03:15:08.261Z,0.36
2022-12-11T03:16:08.109Z,0.39
2022-12-11T03:17:08.146Z,0.36
2022-12-11T03:18:08.037Z,0.39
2022-12-11T03:19:08.032Z,0.41
2022-12-11T03:20:08.054Z,0.41
2022-12-11T03:21:07.979Z,0.39
2022-12-11T03:22:07.953Z,0.39
2022-12-11T03:23:07.965Z,0.38
2022-12-11T03:24:07.930Z,0.39
2022-12-11T03:25:08.486Z,0.41
2022-12-11T03:26:07.914Z,0.41
2022-12-11T03:27:11.171Z,0.41
2022-12-11T03:28:07.889Z,0.43
2022-12-11T03:29:07.881Z,0.42
2022-12-11T03:30:07.856Z,0.42
2022-12-11T03:31:07.925Z,0.43
2022-12-11T03:32:07.831Z,0.46
2022-12-11T03:33:07.816Z,0.46
2022-12-11T03:34:07.820Z,0.48
2022-12-11T03:35:07.786Z,0.48
2022-12-11T03:36:07.779Z,0.46
2022-12-11T03:37:07.760Z,0.48
2022-12-11T03:38:07.770Z,0.46
2022-12-11T03:39:07.756Z,0.49
2022-12-11T03:40:07.736Z,0.46
2022-12-11T03:41:07.704Z,0.46
2022-12-11T03:42:07.693Z,0.48
2022-12-11T03:43:07.699Z,0.48
2022-12-11T03:44:07.696Z,0.45
2022-12-11T03:45:07.751Z,0.46
2022-12-11T03:46:07.708Z,0.45
2022-12-11T03:47:07.613Z,0.46
2022-12-11T03:48:07.621Z,0.49
2022-12-11T03:49:07.630Z,0.49
2022-12-11T03:50:07.604Z,0.51
2022-12-11T03:51:07.589Z,0.49
2022-12-11T03:52:07.602Z,0.52
2022-12-11T03:53:07.572Z,0.52
2022-12-11T03:54:07.570Z,0.52
2022-12-11T03:55:07.828Z,0.57
2022-12-11T03:56:07.572Z,0.53
2022-12-11T03:57:07.482Z,0.60
2022-12-11T03:58:07.493Z,0.60
2022-12-11T03:59:07.483Z,0.60
2022-12-11T04:00:07.453Z,0.61
2022-12-11T04:01:07.424Z,0.65
2022-12-11T04:02:07.463Z,0.65
2022-12-11T04:03:13.015Z,0.62
2022-12-11T04:04:07.469Z,0.64
2022-12-11T04:05:07.418Z,0.64
2022-12-11T04:06:07.398Z,0.64
2022-12-11T04:07:07.355Z,0.65
2022-12-11T04:08:07.405Z,0.67
2022-12-11T04:09:07.363Z,0.67
2022-12-11T04:10:07.346Z,0.67
2022-12-11T04:11:07.305Z,0.67
2022-12-11T04:12:07.299Z,0.68
2022-12-11T04:13:06.336Z,0.68
2022-12-11T04:14:07.279Z,0.68
2022-12-11T04:15:07.251Z,0.70
2022-12-11T04:16:07.337Z,0.70
2022-12-11T04:17:07.217Z,0.68
2022-12-11T04:18:07.205Z,0.68
2022-12-11T04:19:07.217Z,0.71
2022-12-11T04:20:07.181Z,0.68
2022-12-11T04:21:07.184Z,0.71
2022-12-11T04:22:07.165Z,0.70
2022-12-11T04:23:07.158Z,0.68
2022-12-11T04:24:07.144Z,0.68
2022-12-11T04:25:07.129Z,0.65
2022-12-11T04:26:07.118Z,0.65
2022-12-11T04:27:07.092Z,0.65
2022-12-11T04:28:07.091Z,0.68
2022-12-11T04:29:07.082Z,0.64
2022-12-11T04:30:07.085Z,0.65
2022-12-11T04:31:07.102Z,0.68
2022-12-11T04:32:07.036Z,0.64
2022-12-11T04:33:07.025Z,0.67
2022-12-11T04:34:07.012Z,0.68
2022-12-11T04:35:06.994Z,0.67
2022-12-11T04:36:06.976Z,0.68
2022-12-11T04:37:06.945Z,0.68
2022-12-11T04:38:06.952Z,0.68
2022-12-11T04:39:06.924Z,0.68
2022-12-11T04:40:06.927Z,0.71
2022-12-11T04:41:06.900Z,0.71
2022-12-11T04:42:06.915Z,0.68
2022-12-11T04:43:06.888Z,0.70
2022-12-11T04:44:06.872Z,0.71
2022-12-11T04:45:06.854Z,0.70
2022-12-11T04:46:06.856Z,0.67
2022-12-11T04:47:06.823Z,0.70
2022-12-11T04:48:06.821Z,0.68
2022-12-11T04:49:06.791Z,0.70
2022-12-11T04:50:06.830Z,0.70
2022-12-11T04:51:06.765Z,0.71
2022-12-11T04:52:06.751Z,0.71
2022-12-11T04:53:06.753Z,0.70
2022-12-11T04:54:06.744Z,0.72
2022-12-11T04:55:06.746Z,0.76
2022-12-11T04:56:06.712Z,0.71
2022-12-11T04:57:06.686Z,0.75
2022-12-11T04:58:06.668Z,0.70
2022-12-11T04:59:06.674Z,0.75
2022-12-11T05:00:06.684Z,0.76
2022-12-11T05:01:06.645Z,0.75
2022-12-11T05:02:06.692Z,0.72
2022-12-11T05:03:06.653Z,0.72
2022-12-11T05:04:06.606Z,0.75
2022-12-11T05:05:06.620Z,0.72
2022-12-11T05:06:06.580Z,0.71
2022-12-11T05:07:06.557Z,0.71
2022-12-11T05:08:06.603Z,0.72
2022-12-11T05:09:06.520Z,0.68
2022-12-11T05:10:06.548Z,0.70
2022-12-11T05:11:06.499Z,0.68
2022-12-11T05:12:06.489Z,0.68
2022-12-11T05:13:06.473Z,0.70
2022-12-11T05:14:06.484Z,0.68
2022-12-11T05:15:06.455Z,0.70
2022-12-11T05:16:06.442Z,0.71
2022-12-11T05:17:06.416Z,0.70
2022-12-11T05:18:06.417Z,0.70
2022-12-11T05:19:06.407Z,0.70
2022-12-11T05:20:06.394Z,0.68
2022-12-11T05:21:06.381Z,0.68
2022-12-11T05:22:06.370Z,0.70
2022-12-11T05:23:06.327Z,0.68
2022-12-11T05:24:06.368Z,0.70
2022-12-11T05:25:06.311Z,0.72
2022-12-11T05:26:06.306Z,0.71
2022-12-11T05:27:06.283Z,0.72
2022-12-11T05:28:06.285Z,0.72
2022-12-11T05:29:06.297Z,0.72
2022-12-11T05:30:06.285Z,0.75
2022-12-11T05:31:06.341Z,0.76
2022-12-11T05:32:06.216Z,0.78
2022-12-11T05:33:06.210Z,0.76
2022-12-11T05:34:06.213Z,0.75
2022-12-11T05:35:06.178Z,0.78
2022-12-11T05:36:06.185Z,0.72
2022-12-11T05:37:06.140Z,0.79
2022-12-11T05:38:06.153Z,0.80
2022-12-11T05:39:06.149Z,0.78
2022-12-11T05:40:06.367Z,0.79
2022-12-11T05:41:06.115Z,0.80
2022-12-11T05:42:06.081Z,0.79
2022-12-11T05:43:06.069Z,0.82
2022-12-11T05:44:06.101Z,0.82
2022-12-11T05:45:06.046Z,0.80
2022-12-11T05:46:06.052Z,0.79
2022-12-11T05:47:06.013Z,0.78
2022-12-11T05:48:06.006Z,0.78
2022-12-11T05:49:06.008Z,0.78
2022-12-11T05:50:05.975Z,0.78
2022-12-11T05:51:05.981Z,0.76
2022-12-11T05:52:05.938Z,0.76
2022-12-11T05:53:05.932Z,0.75
2022-12-11T05:54:05.943Z,0.79
2022-12-11T05:55:06.008Z,0.76
2022-12-11T05:56:05.914Z,0.76
2022-12-11T05:57:05.896Z,0.78
2022-12-11T05:58:05.885Z,0.83
2022-12-11T05:59:05.885Z,0.78
2022-12-11T06:00:05.856Z,0.80
2022-12-11T06:01:05.850Z,0.79
2022-12-11T06:02:05.919Z,0.79
2022-12-11T06:03:05.949Z,0.80
2022-12-11T06:04:05.801Z,0.82
2022-12-11T06:05:05.796Z,0.80
2022-12-11T06:06:05.776Z,0.79
2022-12-11T06:07:05.759Z,0.82
2022-12-11T06:08:05.785Z,0.85
2022-12-11T06:09:05.772Z,0.82
2022-12-11T06:10:05.708Z,0.82
2022-12-11T06:11:05.697Z,0.79
2022-12-11T06:12:07.266Z,0.83
2022-12-11T06:13:05.723Z,0.82
2022-12-11T06:14:05.703Z,0.85
2022-12-11T06:15:05.641Z,0.80
2022-12-11T06:16:05.820Z,0.85
2022-12-11T06:17:05.645Z,0.80
2022-12-11T06:18:05.783Z,0.83
2022-12-11T06:19:05.646Z,0.83
2022-12-11T06:20:05.606Z,0.82
2022-12-11T06:21:05.569Z,0.82
2022-12-11T06:22:05.558Z,0.82
2022-12-11T06:23:05.570Z,0.79
2022-12-11T06:24:05.530Z,0.83
2022-12-11T06:25:05.526Z,0.79
2022-12-11T06:26:05.673Z,0.82
2022-12-11T06:27:05.512Z,0.82
2022-12-11T06:28:05.495Z,0.82
2022-12-11T06:29:09.176Z,0.83
2022-12-11T06:30:05.510Z,0.82
2022-12-11T06:31:05.498Z,0.85
2022-12-11T06:32:05.498Z,0.83
2022-12-11T06:33:05.433Z,0.83
2022-12-11T06:34:05.418Z,0.85
2022-12-11T06:35:05.396Z,0.86
2022-12-11T06:36:05.395Z,0.82
2022-12-11T06:37:05.385Z,0.85
2022-12-11T06:38:05.371Z,0.83
2022-12-11T06:39:05.354Z,0.83
2022-12-11T06:40:05.348Z,0.86
2022-12-11T06:41:05.328Z,0.85
2022-12-11T06:42:05.284Z,0.85
2022-12-11T06:43:05.294Z,0.86
2022-12-11T06:44:07.396Z,0.85
2022-12-11T06:45:05.280Z,0.88
2022-12-11T06:46:05.352Z,0.85
2022-12-11T06:47:05.381Z,0.82
2022-12-11T06:48:05.235Z,0.85
2022-12-11T06:49:05.222Z,0.85
2022-12-11T06:50:05.319Z,0.82
2022-12-11T06:51:05.165Z,0.82
2022-12-11T06:52:05.182Z,0.82
2022-12-11T06:53:05.160Z,0.82
2022-12-11T06:54:05.126Z,0.82
2022-12-11T06:55:05.128Z,0.80
2022-12-11T06:56:05.104Z,0.82
2022-12-11T06:57:05.163Z,0.85
2022-12-11T06:58:05.120Z,0.82
2022-12-11T06:59:07.437Z,0.82
2022-12-11T07:00:05.053Z,0.80
2022-12-11T07:01:05.160Z,0.82
2022-12-11T07:02:05.195Z,0.82
2022-12-11T07:03:05.062Z,0.83
2022-12-11T07:04:05.029Z,0.82
2022-12-11T07:05:05.039Z,0.83
2022-12-11T07:06:05.022Z,0.83
2022-12-11T07:07:05.013Z,0.83
2022-12-11T07:08:04.982Z,0.82
2022-12-11T07:09:04.928Z,0.83
2022-12-11T07:10:08.239Z,0.85
2022-12-11T07:11:04.971Z,0.83
2022-12-11T07:12:04.912Z,0.83
2022-12-11T07:13:04.885Z,0.88
2022-12-11T07:14:04.850Z,0.86
2022-12-11T07:15:04.843Z,0.86
2022-12-11T07:16:04.923Z,0.86
2022-12-11T07:17:04.829Z,0.88
2022-12-11T07:18:03.789Z,0.86
2022-12-11T07:19:04.814Z,0.86
2022-12-11T07:20:04.791Z,0.85
2022-12-11T07:21:04.759Z,0.89
2022-12-11T07:22:04.749Z,0.83
2022-12-11T07:23:03.724Z,0.86
2022-12-11T07:24:04.740Z,0.89
2022-12-11T07:25:04.766Z,0.85
2022-12-11T07:26:04.688Z,0.88
2022-12-11T07:27:04.697Z,0.92
2022-12-11T07:28:04.667Z,0.86
2022-12-11T07:29:04.664Z,0.85
2022-12-11T07:30:04.647Z,0.86
2022-12-11T07:31:04.683Z,0.88
2022-12-11T07:32:04.751Z,0.86
2022-12-11T07:33:04.648Z,0.85
2022-12-11T07:34:04.578Z,0.86
2022-12-11T07:35:04.581Z,0.85
2022-12-11T07:36:04.562Z,0.88
2022-12-11T07:37:04.599Z,0.88
2022-12-11T07:38:04.526Z,0.88
2022-12-11T07:39:04.515Z,0.86
2022-12-11T07:40:04.822Z,0.89
2022-12-11T07:41:04.509Z,0.88
2022-12-11T07:42:04.494Z,0.89
2022-12-11T07:43:04.518Z,0.92
2022-12-11T07:44:04.445Z,0.92
2022-12-11T07:45:04.454Z,0.94
2022-12-11T07:46:04.564Z,0.97
2022-12-11T07:47:04.447Z,0.96
2022-12-11T07:48:04.400Z,0.97
2022-12-11T07:49:04.374Z,1.00
2022-12-11T07:50:04.364Z,0.97
2022-12-11T07:51:04.372Z,0.98
2022-12-11T07:52:04.362Z,0.97
2022-12-11T07:53:04.332Z,0.97
2022-12-11T07:54:04.329Z,0.96
2022-12-11T07:55:04.304Z,0.96
2022-12-11T07:56:04.320Z,0.97
2022-12-11T07:57:04.900Z,0.97
2022-12-11T07:58:04.258Z,0.97
2022-12-11T07:59:03.253Z,0.97
2022-12-11T08:00:04.245Z,0.98
2022-12-11T08:01:04.273Z,0.96
2022-12-11T08:02:04.263Z,0.96
2022-12-11T08:03:04.195Z,0.98
2022-12-11T08:04:04.196Z,1.00
2022-12-11T08:05:04.177Z,0.97
2022-12-11T08:06:04.161Z,0.97
2022-12-11T08:07:04.139Z,1.00
2022-12-11T08:08:04.217Z,0.97
2022-12-11T08:09:04.137Z,0.97
2022-12-11T08:10:04.097Z,0.97
2022-12-11T08:11:04.099Z,0.98
2022-12-11T08:12:04.079Z,0.97
2022-12-11T08:13:04.073Z,1.00
2022-12-11T08:14:04.054Z,0.98
2022-12-11T08:15:04.072Z,1.00
2022-12-11T08:16:04.032Z,1.00
2022-12-11T08:17:04.104Z,1.01
2022-12-11T08:18:04.007Z,1.00
2022-12-11T08:19:03.999Z,1.00
2022-12-11T08:20:03.969Z,1.03
2022-12-11T08:21:03.978Z,1.00
2022-12-11T08:22:03.940Z,1.01
2022-12-11T08:23:03.955Z,1.01
2022-12-11T08:24:03.930Z,1.04
2022-12-11T08:25:03.932Z,1.03
2022-12-11T08:26:03.920Z,1.04
2022-12-11T08:27:03.876Z,1.06
2022-12-11T08:28:03.864Z,1.04
2022-12-11T08:29:03.853Z,1.07
2022-12-11T08:30:03.842Z,1.07
2022-12-11T08:31:03.877Z,1.04
2022-12-11T08:32:08.975Z,1.07
2022-12-11T08:33:03.833Z,1.10
2022-12-11T08:34:03.776Z,1.10
2022-12-11T08:35:03.767Z,1.10
2022-12-11T08:36:03.771Z,1.12
2022-12-11T08:37:03.755Z,1.12
2022-12-11T08:38:03.832Z,1.12
2022-12-11T08:39:03.720Z,1.14
2022-12-11T08:40:03.731Z,1.14
2022-12-11T08:41:03.725Z,1.12
2022-12-11T08:42:03.667Z,1.14
2022-12-11T08:43:03.681Z,1.16
2022-12-11T08:44:05.974Z,1.12
2022-12-11T08:45:03.633Z,1.12
2022-12-11T08:46:03.701Z,1.15
2022-12-11T08:47:03.634Z,1.18
2022-12-11T08:48:03.606Z,1.14
2022-12-11T08:49:03.615Z,1.16
2022-12-11T08:50:03.598Z,1.16
2022-12-11T08:51:03.564Z,1.16
2022-12-11T08:52:03.546Z,1.18
2022-12-11T08:53:03.574Z,1.16
2022-12-11T08:54:03.532Z,1.18
2022-12-11T08:55:03.516Z,1.21
2022-12-11T08:56:03.483Z,1.18
2022-12-11T08:57:03.490Z,1.18
2022-12-11T08:58:03.455Z,1.15
2022-12-11T08:59:03.473Z,1.21
2022-12-11T09:00:03.423Z,1.21
2022-12-11T09:01:03.476Z,1.19
2022-12-11T09:02:03.411Z,1.19
2022-12-11T09:03:05.328Z,1.22
2022-12-11T09:04:03.394Z,1.24
2022-12-11T09:05:03.398Z,1.26
2022-12-11T09:06:03.364Z,1.25
2022-12-11T09:07:03.360Z,1.26
2022-12-11T09:08:03.406Z,1.28
2022-12-11T09:09:03.761Z,1.26
2022-12-11T09:10:03.326Z,1.28
2022-12-11T09:11:03.299Z,1.25
2022-12-11T09:12:03.270Z,1.29
2022-12-11T09:13:03.259Z,1.29
2022-12-11T09:14:07.193Z,1.29
2022-12-11T09:15:03.242Z,1.28
2022-12-11T09:16:03.234Z,1.29
2022-12-11T09:17:03.270Z,1.32
2022-12-11T09:18:03.204Z,1.28
2022-12-11T09:19:03.216Z,1.29
2022-12-11T09:20:03.210Z,1.34
2022-12-11T09:21:03.176Z,1.33
2022-12-11T09:22:03.143Z,1.34
2022-12-11T09:23:03.129Z,1.39
2022-12-11T09:24:03.125Z,1.37
2022-12-11T09:25:03.111Z,1.36
2022-12-11T09:26:03.078Z,1.36
2022-12-11T09:27:03.069Z,1.37
2022-12-11T09:28:03.061Z,1.37
2022-12-11T09:29:03.095Z,1.39
2022-12-11T09:30:03.021Z,1.40
2022-12-11T09:31:03.083Z,1.39
2022-12-11T09:32:03.017Z,1.44
2022-12-11T09:33:03.114Z,1.43
2022-12-11T09:34:03.004Z,1.43
2022-12-11T09:35:02.970Z,1.46
2022-12-11T09:36:02.972Z,1.46
2022-12-11T09:37:02.937Z,1.46
2022-12-11T09:38:02.925Z,1.47
2022-12-11T09:39:02.934Z,1.46
2022-12-11T09:40:07.552Z,1.46
2022-12-11T09:41:02.895Z,1.50
2022-12-11T09:42:02.864Z,1.51
2022-12-11T09:43:02.876Z,1.51
2022-12-11T09:44:02.875Z,1.52
2022-12-11T09:45:02.844Z,1.54
2022-12-11T09:46:02.871Z,1.54
2022-12-11T09:47:02.817Z,1.57
2022-12-11T09:48:02.791Z,1.55
2022-12-11T09:49:02.811Z,1.55
2022-12-11T09:50:02.770Z,1.52
2022-12-11T09:51:02.758Z,1.58
2022-12-11T09:52:02.746Z,1.57
2022-12-11T09:53:02.744Z,1.57
2022-12-11T09:54:02.722Z,1.58
2022-12-11T09:55:02.725Z,1.57
2022-12-11T09:56:02.723Z,1.57
2022-12-11T09:57:02.680Z,1.57
2022-12-11T09:58:02.686Z,1.58
2022-12-11T09:59:02.723Z,1.57
2022-12-11T10:00:05.100Z,1.61
2022-12-11T10:01:02.758Z,1.57
2022-12-11T10:02:02.612Z,1.60
2022-12-11T10:03:02.688Z,1.60
2022-12-11T10:04:02.614Z,1.60
2022-12-11T10:05:02.565Z,1.58
2022-12-11T10:06:04.784Z,1.60
2022-12-11T10:07:02.543Z,1.62
2022-12-11T10:08:02.630Z,1.61
2022-12-11T10:09:02.523Z,1.61
2022-12-11T10:10:02.508Z,1.62
2022-12-11T10:11:02.495Z,1.64
2022-12-11T10:12:02.481Z,1.60
2022-12-11T10:13:02.461Z,1.60
2022-12-11T10:14:02.467Z,1.60
2022-12-11T10:15:02.470Z,1.58
2022-12-11T10:16:02.459Z,1.61
2022-12-11T10:17:02.427Z,1.62
2022-12-11T10:18:05.219Z,1.60
2022-12-11T10:19:02.402Z,1.60
2022-12-11T10:20:02.370Z,1.61
2022-12-11T10:21:02.356Z,1.62
2022-12-11T10:22:02.342Z,1.62
2022-12-11T10:23:02.326Z,1.61
2022-12-11T10:24:02.317Z,1.64
2022-12-11T10:25:11.519Z,1.64
2022-12-11T10:26:02.293Z,1.64
2022-12-11T10:27:02.278Z,1.68
2022-12-11T10:28:02.270Z,1.65
2022-12-11T10:29:02.239Z,1.69
2022-12-11T10:30:02.259Z,1.71
2022-12-11T10:31:02.277Z,1.69
2022-12-11T10:32:02.210Z,1.69
2022-12-11T10:33:02.185Z,1.72
2022-12-11T10:34:02.227Z,1.72
2022-12-11T10:35:02.185Z,1.71
2022-12-11T10:36:02.194Z,1.76
2022-12-11T10:37:02.142Z,1.78
2022-12-11T10:38:02.139Z,1.76
2022-12-11T10:39:02.135Z,1.75
2022-12-11T10:40:02.118Z,1.75
2022-12-11T10:41:02.097Z,1.75
2022-12-11T10:42:02.108Z,1.76
2022-12-11T10:43:02.080Z,1.76
2022-12-11T10:44:02.048Z,1.78
2022-12-11T10:45:02.068Z,1.76
2022-12-11T10:46:02.078Z,1.79
2022-12-11T10:47:02.053Z,1.76
2022-12-11T10:48:02.016Z,1.75
2022-12-11T10:49:01.979Z,1.79
2022-12-11T10:50:01.991Z,1.76
2022-12-11T10:51:01.952Z,1.78
2022-12-11T10:52:01.942Z,1.78
2022-12-11T10:53:01.918Z,1.79
2022-12-11T10:54:07.024Z,1.78
2022-12-11T10:55:01.938Z,1.76
2022-12-11T10:56:01.943Z,1.76
2022-12-11T10:57:01.879Z,1.73
2022-12-11T10:58:01.872Z,1.76
2022-12-11T10:59:01.844Z,1.78
2022-12-11T11:00:01.851Z,1.75
2022-12-11T11:01:01.808Z,1.78
2022-12-11T11:02:01.837Z,1.75
2022-12-11T11:03:01.833Z,1.78
2022-12-11T11:04:01.786Z,1.80
2022-12-11T11:05:01.781Z,1.79
2022-12-11T11:06:01.759Z,1.79
2022-12-11T11:07:01.740Z,1.75
2022-12-11T11:08:01.766Z,1.80
2022-12-11T11:09:01.705Z,1.79
2022-12-11T11:10:01.724Z,1.79
2022-12-11T11:11:01.691Z,1.79
2022-12-11T11:12:07.449Z,1.80
2022-12-11T11:13:01.671Z,1.80
2022-12-11T11:14:01.651Z,1.82
2022-12-11T11:15:01.654Z,1.79
2022-12-11T11:16:01.677Z,1.80
2022-12-11T11:17:01.610Z,1.85
2022-12-11T11:18:01.591Z,1.83
2022-12-11T11:19:01.596Z,1.83
2022-12-11T11:20:01.583Z,1.83
2022-12-11T11:21:01.576Z,1.89
2022-12-11T11:22:01.554Z,1.89
2022-12-11T11:23:01.521Z,1.87
2022-12-11T11:24:01.517Z,1.87
2022-12-11T11:25:01.531Z,1.89
2022-12-11T11:26:01.532Z,1.90
2022-12-11T11:27:13.334Z,1.89
2022-12-11T11:28:01.546Z,1.89
2022-12-11T11:29:01.446Z,1.91
2022-12-11T11:30:01.461Z,1.93
2022-12-11T11:31:01.461Z,1.91
2022-12-11T11:32:01.405Z,1.90
2022-12-11T11:33:01.414Z,1.90
2022-12-11T11:34:01.419Z,1.91
2022-12-11T11:35:01.389Z,1.90
2022-12-11T11:36:01.367Z,1.89
2022-12-11T11:37:02.142Z,1.89
2022-12-11T11:38:01.336Z,1.89
2022-12-11T11:39:01.308Z,1.87
2022-12-11T11:40:01.298Z,1.89
2022-12-11T11:41:06.567Z,1.85
2022-12-11T11:42:01.286Z,1.90
2022-12-11T11:43:01.249Z,1.89
2022-12-11T11:44:01.246Z,1.90
2022-12-11T11:45:01.233Z,1.89
2022-12-11T11:46:01.226Z,1.89
2022-12-11T11:47:01.193Z,1.89
2022-12-11T11:48:03.150Z,1.87
2022-12-11T11:49:01.181Z,1.89
2022-12-11T11:50:01.159Z,1.90
2022-12-11T11:51:01.190Z,1.83
2022-12-11T11:52:01.134Z,1.79
2022-12-11T11:53:01.160Z,1.79
2022-12-11T11:54:01.113Z,1.79
2022-12-11T11:55:01.122Z,1.80
2022-12-11T11:56:01.126Z,1.82
2022-12-11T11:57:01.067Z,1.80
2022-12-11T11:58:01.050Z,1.80
2022-12-11T11:59:01.028Z,1.83
2022-12-11T12:00:01.034Z,1.83
2022-12-11T12:01:01.017Z,1.83
2022-12-11T12:02:01.000Z,1.83
2022-12-11T12:03:01.030Z,1.83
2022-12-11T12:04:00.985Z,1.87
2022-12-11T12:05:00.963Z,1.83
2022-12-11T12:06:01.002Z,1.87
2022-12-11T12:07:00.939Z,1.85
2022-12-11T12:08:00.977Z,1.87
2022-12-11T12:09:00.949Z,1.83
2022-12-11T12:10:00.929Z,1.83
2022-12-11T12:11:00.933Z,1.85
2022-12-11T12:12:00.883Z,1.83
2022-12-11T12:13:00.849Z,1.83
2022-12-11T12:14:00.864Z,1.82
2022-12-11T12:15:00.853Z,1.83
2022-12-11T12:16:00.904Z,1.82
2022-12-11T12:17:00.921Z,1.82
2022-12-11T12:18:00.788Z,1.83
2022-12-11T12:19:00.794Z,1.83
2022-12-11T12:20:00.769Z,1.85
2022-12-11T12:21:00.760Z,1.83
2022-12-11T12:22:00.740Z,1.87
2022-12-11T12:23:00.758Z,1.87
2022-12-11T12:24:00.735Z,1.87
2022-12-11T12:25:00.788Z,1.89
2022-12-11T12:26:00.690Z,1.89
2022-12-11T12:27:00.705Z,1.89
2022-12-11T12:28:00.677Z,1.91
2022-12-11T12:29:00.648Z,1.85
2022-12-11T12:30:00.634Z,1.85
2022-12-11T12:31:00.634Z,1.89
2022-12-11T12:31:59.616Z,1.91
2022-12-11T12:33:00.588Z,1.89
2022-12-11T12:34:00.587Z,1.87
2022-12-11T12:35:00.575Z,1.85
2022-12-11T12:36:06.406Z,1.90
2022-12-11T12:37:00.546Z,1.89
2022-12-11T12:38:00.573Z,1.87
2022-12-11T12:39:00.588Z,1.89
2022-12-11T12:40:00.552Z,1.89
2022-12-11T12:41:00.638Z,1.90
2022-12-11T12:42:05.754Z,1.90
2022-12-11T12:43:00.452Z,1.89
2022-12-11T12:44:00.514Z,1.89
2022-12-11T12:45:00.605Z,1.87
2022-12-11T12:46:00.542Z,1.85
2022-12-11T12:47:00.520Z,1.83
2022-12-11T12:48:00.426Z,1.85
2022-12-11T12:49:00.378Z,1.82
2022-12-11T12:50:00.369Z,1.82
2022-12-11T12:51:00.398Z,1.82
2022-12-11T12:52:00.342Z,1.79
2022-12-11T12:53:00.321Z,1.79
2022-12-11T12:54:00.310Z,1.79
2022-12-11T12:55:00.280Z,1.80
2022-12-11T12:56:00.309Z,1.79
2022-12-11T12:57:00.285Z,1.79
2022-12-11T12:58:00.257Z,1.80
2022-12-11T12:59:00.256Z,1.80
2022-12-11T13:00:00.233Z,1.79
2022-12-11T13:01:00.275Z,1.79
2022-12-11T13:02:00.308Z,1.78
2022-12-11T13:03:00.256Z,1.78
2022-12-11T13:04:00.227Z,1.78
2022-12-11T13:05:00.205Z,1.78
2022-12-11T13:06:00.150Z,1.78
2022-12-11T13:07:00.132Z,1.78
2022-12-11T13:08:00.200Z,1.76
2022-12-11T13:09:00.141Z,1.76
2022-12-11T13:10:00.161Z,1.73
2022-12-11T13:11:00.084Z,1.78
2022-12-11T13:12:00.098Z,1.75
2022-12-11T13:13:00.090Z,1.78
2022-12-11T13:14:00.105Z,1.79
2022-12-11T13:15:00.088Z,1.76
2022-12-11T13:16:00.151Z,1.76
2022-12-11T13:17:00.180Z,1.79
2022-12-11T13:18:00.007Z,1.75